Time;durP1;ratioP1;P1;durP2;ratioP2;P2;SDS_P1;SDS_P2;PMS_P1;PMS_P2;Temp;Humidity;BMP_temperature;BMP_pressure;BME280_temperature;BME280_humidity;BME280_pressure;Samples;Min_cycle;Max_cycle;Signal;HPM_P1;HPM_P2
2020/12/16 00:01:11;;;;;;;59.35;17.33;;;;;;;4.01;80.73;96415.56;5050813;28;20057;-67
2020/12/16 00:03:37;;;;;;;75.90;17.92;;;;;;;3.98;80.61;96413.44;5051253;28;20528;-66
2020/12/16 00:06:03;;;;;;;59.47;16.77;;;;;;;3.95;80.82;96413.16;5050805;28;20045;-67
2020/12/16 00:08:30;;;;;;;67.70;16.90;;;;;;;3.91;80.58;96407.50;5051096;28;20408;-66
2020/12/16 00:10:56;;;;;;;70.00;16.52;;;;;;;3.90;80.67;96422.84;5050859;28;20053;-66
2020/12/16 00:13:23;;;;;;;62.85;15.70;;;;;;;3.87;80.72;96423.44;5050619;28;20041;-66
2020/12/16 00:15:49;;;;;;;56.45;15.80;;;;;;;3.80;80.91;96427.47;5051187;28;20048;-66
2020/12/16 00:18:15;;;;;;;69.53;16.05;;;;;;;3.77;80.76;96418.06;5050390;28;20045;-67
2020/12/16 00:20:41;;;;;;;61.30;16.63;;;;;;;3.76;80.99;96416.44;5050822;28;20127;-66
2020/12/16 00:23:07;;;;;;;65.18;15.25;;;;;;;3.76;81.21;96421.84;5050524;28;20052;-67
2020/12/16 00:25:33;;;;;;;71.07;15.40;;;;;;;3.75;81.10;96411.31;5054581;28;20405;-66
2020/12/16 00:27:59;;;;;;;66.35;15.15;;;;;;;3.77;81.29;96412.66;5050921;28;20087;-66
2020/12/16 00:30:26;;;;;;;60.35;15.63;;;;;;;3.76;81.24;96405.69;5050050;28;20087;-66
2020/12/16 00:32:52;;;;;;;65.75;14.90;;;;;;;3.76;81.05;96416.44;5050385;28;20041;-66
2020/12/16 00:35:18;;;;;;;64.00;16.55;;;;;;;3.74;81.06;96418.59;5050220;28;20079;-67
2020/12/16 00:37:44;;;;;;;68.20;16.50;;;;;;;3.69;80.92;96426.69;5050488;28;20095;-66
2020/12/16 00:40:12;;;;;;;65.15;16.17;;;;;;;3.68;81.15;96430.47;5050025;28;20056;-67
2020/12/16 00:42:38;;;;;;;61.90;15.13;;;;;;;3.65;81.16;96441.75;5050498;28;20045;-66
2020/12/16 00:45:05;;;;;;;60.30;14.50;;;;;;;3.66;81.07;96438.00;5049779;28;20070;-67
2020/12/16 00:47:33;;;;;;;60.85;15.05;;;;;;;3.67;81.28;96439.63;5050541;28;20056;-66
2020/12/16 00:50:00;;;;;;;70.45;15.48;;;;;;;3.69;81.17;96442.84;5049617;28;20419;-67
2020/12/16 00:52:27;;;;;;;57.47;15.35;;;;;;;3.72;81.07;96447.69;5049944;28;20063;-66
2020/12/16 00:54:53;;;;;;;60.63;14.75;;;;;;;3.76;81.10;96447.94;5054421;28;20048;-66
2020/12/16 00:57:19;;;;;;;65.40;15.82;;;;;;;3.76;81.04;96443.38;5049695;28;20049;-66
2020/12/16 00:59:45;;;;;;;61.70;16.08;;;;;;;3.79;80.97;96453.59;5050228;28;20056;-66
2020/12/16 01:02:11;;;;;;;54.72;15.52;;;;;;;3.83;80.87;96459.25;5049421;28;20040;-67
2020/12/16 01:04:38;;;;;;;71.82;15.38;;;;;;;3.84;81.08;96450.91;5050012;28;20518;-67
2020/12/16 01:07:04;;;;;;;66.30;15.23;;;;;;;3.89;80.76;96452.78;5049605;28;20044;-67
2020/12/16 01:09:30;;;;;;;56.83;14.23;;;;;;;3.90;80.98;96444.41;5049970;28;20531;-66
2020/12/16 01:11:56;;;;;;;79.55;15.27;;;;;;;3.93;80.84;96441.19;5049888;28;20048;-66
2020/12/16 01:14:22;;;;;;;59.83;16.52;;;;;;;3.94;80.69;96436.59;5049457;28;20045;-66
2020/12/16 01:16:48;;;;;;;65.13;15.45;;;;;;;3.97;80.41;96437.94;5049854;28;20492;-66
2020/12/16 01:19:14;;;;;;;72.63;15.40;;;;;;;3.99;80.58;96439.28;5049220;28;20045;-67
2020/12/16 01:21:41;;;;;;;64.78;15.02;;;;;;;4.00;80.57;96432.81;5049806;28;20067;-66
2020/12/16 01:24:07;;;;;;;60.85;14.95;;;;;;;3.99;80.30;96439.28;5049533;28;20385;-67
2020/12/16 01:26:37;;;;;;;72.80;15.88;;;;;;;4.00;80.27;96442.78;5053813;28;20091;-66
2020/12/16 01:29:03;;;;;;;55.33;14.60;;;;;;;4.01;80.38;96441.69;5049498;28;20139;-67
2020/12/16 01:31:36;;;;;;;64.68;16.10;;;;;;;4.00;80.46;96440.09;5049438;28;20049;-67
2020/12/16 01:34:02;;;;;;;62.65;16.08;;;;;;;4.00;80.46;96448.97;5049277;28;20049;-67
2020/12/16 01:36:28;;;;;;;64.00;16.00;;;;;;;3.99;80.20;96441.97;5049607;28;20044;-66
2020/12/16 01:38:55;;;;;;;61.72;15.90;;;;;;;3.98;80.27;96431.47;5049531;28;20053;-66
2020/12/16 01:41:21;;;;;;;66.22;17.13;;;;;;;3.99;80.43;96425.00;5049117;28;20052;-66
2020/12/16 01:43:47;;;;;;;69.95;16.60;;;;;;;3.95;80.01;96418.53;5049575;28;20075;-66
2020/12/16 01:46:13;;;;;;;67.20;16.25;;;;;;;3.89;80.21;96421.25;5048832;28;20060;-67
2020/12/16 01:55:44;;;;;;;300.48;24.92;;;;;;;3.73;80.57;96438.53;5052805;28;20522;-67
2020/12/16 01:58:13;;;;;;;77.20;16.33;;;;;;;3.65;80.73;96436.38;5067194;28;20419;-67
2020/12/16 02:00:39;;;;;;;68.20;16.10;;;;;;;3.63;81.06;96427.78;5069445;28;20527;-66
2020/12/16 02:03:08;;;;;;;60.53;15.68;;;;;;;3.62;80.47;96431.56;5072265;28;20048;-67
2020/12/16 02:05:39;;;;;;;71.45;16.80;;;;;;;3.61;80.50;96440.72;5072922;28;20045;-67
2020/12/16 02:08:08;;;;;;;59.28;14.88;;;;;;;3.58;80.41;96431.28;5073050;28;20131;-67
2020/12/16 02:10:35;;;;;;;53.80;14.75;;;;;;;3.57;80.50;96423.47;5072713;28;20106;-66
2020/12/16 02:13:05;;;;;;;77.13;15.73;;;;;;;3.53;80.66;96425.91;5072614;28;20045;-68
2020/12/16 02:15:31;;;;;;;58.42;14.95;;;;;;;3.51;80.69;96424.56;5073122;28;20057;-66
2020/12/16 02:17:57;;;;;;;67.40;15.02;;;;;;;3.49;80.47;96421.31;5073020;28;20048;-66
2020/12/16 02:20:23;;;;;;;62.95;15.32;;;;;;;3.47;80.49;96424.28;5072604;28;20511;-66
2020/12/16 02:22:50;;;;;;;72.35;15.57;;;;;;;3.46;80.69;96419.19;5073348;28;20048;-67
2020/12/16 02:25:16;;;;;;;60.10;14.75;;;;;;;3.44;80.38;96421.31;5072503;28;20122;-67
2020/12/16 02:27:43;;;;;;;134.77;18.15;;;;;;;3.40;80.69;96418.38;5074365;28;20072;-66
2020/12/16 02:30:12;;;;;;;67.88;15.43;;;;;;;3.34;80.74;96420.28;5071978;28;20622;-67
2020/12/16 02:32:39;;;;;;;70.40;15.23;;;;;;;3.33;80.88;96418.63;5072723;28;20411;-66
2020/12/16 02:35:06;;;;;;;65.93;15.40;;;;;;;3.32;80.88;96425.09;5072474;28;20060;-67
2020/12/16 02:37:33;;;;;;;60.95;15.48;;;;;;;3.29;80.81;96422.13;5072941;28;20056;-67
2020/12/16 02:39:59;;;;;;;65.70;15.50;;;;;;;3.28;80.87;96426.72;5072891;28;20045;-67
2020/12/16 02:42:27;;;;;;;50.65;15.48;;;;;;;3.27;81.17;96422.41;5072259;28;20040;-66
2020/12/16 02:44:54;;;;;;;60.03;15.88;;;;;;;3.26;80.96;96423.50;5072770;28;20458;-66
2020/12/16 02:47:21;;;;;;;53.47;15.30;;;;;;;3.26;81.12;96423.50;5072065;28;20423;-66
2020/12/16 02:49:47;;;;;;;52.83;14.55;;;;;;;3.27;80.92;96417.03;5072752;28;20048;-66
2020/12/16 02:52:13;;;;;;;57.85;15.80;;;;;;;3.26;80.96;96410.03;5072189;28;20059;-66
2020/12/16 02:54:39;;;;;;;59.30;15.57;;;;;;;3.21;81.38;96415.41;5072440;28;20052;-66
2020/12/16 02:57:05;;;;;;;70.10;15.52;;;;;;;3.19;81.60;96422.97;5073576;28;20101;-67
2020/12/16 02:59:33;;;;;;;55.55;15.07;;;;;;;3.21;81.74;96426.19;5072728;28;20076;-66
2020/12/16 03:01:59;;;;;;;53.80;15.30;;;;;;;3.22;81.69;96433.19;5072511;28;20053;-66
2020/12/16 03:04:26;;;;;;;54.33;15.23;;;;;;;3.26;81.74;96436.94;5072049;28;20131;-66
2020/12/16 03:06:53;;;;;;;65.90;16.27;;;;;;;3.33;81.64;96439.38;5072259;28;20251;-66
2020/12/16 03:09:21;;;;;;;57.58;15.90;;;;;;;3.38;81.58;96434.78;5071964;28;20473;-66
2020/12/16 03:11:50;;;;;;;59.42;16.00;;;;;;;3.42;81.41;96431.56;5072164;28;20052;-66
2020/12/16 03:14:17;;;;;;;57.72;15.13;;;;;;;3.45;81.40;96423.78;5070710;28;20051;-66
2020/12/16 03:16:44;;;;;;;59.72;15.23;;;;;;;3.49;81.41;96432.09;5072295;28;20078;-66
2020/12/16 03:19:10;;;;;;;63.95;16.45;;;;;;;3.50;81.41;96431.00;5071771;28;20048;-67
2020/12/16 03:21:36;;;;;;;58.55;15.50;;;;;;;3.53;81.41;96433.16;5072091;28;20055;-66
2020/12/16 03:24:02;;;;;;;56.83;15.60;;;;;;;3.55;81.53;96428.31;5071641;28;20094;-67
2020/12/16 03:26:28;;;;;;;70.00;16.80;;;;;;;3.52;81.53;96428.88;5073572;28;20131;-66
2020/12/16 03:28:54;;;;;;;60.70;16.75;;;;;;;3.50;81.62;96422.94;5072116;28;20044;-66
2020/12/16 03:31:20;;;;;;;64.15;17.17;;;;;;;3.52;81.53;96423.47;5071555;28;20045;-66
2020/12/16 03:33:47;;;;;;;72.68;16.52;;;;;;;3.51;81.63;96427.25;5071725;28;20178;-67
2020/12/16 03:36:15;;;;;;;60.90;16.35;;;;;;;3.52;81.68;96415.41;5071240;28;20045;-67
2020/12/16 03:38:41;;;;;;;53.17;15.70;;;;;;;3.49;81.55;96426.72;5071895;28;20041;-66
2020/12/16 03:41:07;;;;;;;61.47;16.52;;;;;;;3.53;81.69;96433.16;5071198;28;20044;-67
2020/12/16 03:43:33;;;;;;;51.75;15.88;;;;;;;3.54;81.65;96432.09;5071784;28;20048;-66
2020/12/16 03:45:59;;;;;;;62.13;16.75;;;;;;;3.57;81.27;96439.63;5071664;28;20596;-66
2020/12/16 03:48:25;;;;;;;56.13;17.45;;;;;;;3.61;81.22;96435.31;5071091;28;20052;-67
2020/12/16 03:50:52;;;;;;;61.17;17.58;;;;;;;3.62;81.47;96426.97;5071678;28;20044;-66
2020/12/16 03:53:18;;;;;;;74.63;16.90;;;;;;;3.62;81.53;96431.56;5070978;28;20634;-66
2020/12/16 03:55:44;;;;;;;70.57;16.80;;;;;;;3.58;81.76;96430.47;5073449;28;20423;-66
2020/12/16 03:58:10;;;;;;;70.38;17.17;;;;;;;3.56;81.76;96432.63;5070231;28;20036;-66
2020/12/16 04:00:36;;;;;;;65.70;16.23;;;;;;;3.50;81.63;96422.94;5071438;28;20055;-66
2020/12/16 04:03:02;;;;;;;66.03;16.60;;;;;;;3.42;81.94;96420.81;5070631;28;20106;-67
2020/12/16 04:05:28;;;;;;;83.13;16.95;;;;;;;3.42;82.42;96420.81;5070232;28;20048;-66
2020/12/16 04:07:55;;;;;;;66.68;15.88;;;;;;;3.40;82.45;96432.66;5070978;28;20052;-66
2020/12/16 04:10:21;;;;;;;65.25;15.50;;;;;;;3.36;82.44;96439.66;5069519;28;20463;-66
2020/12/16 04:12:47;;;;;;;64.70;16.08;;;;;;;3.34;82.65;96436.44;5070927;28;20047;-67
2020/12/16 04:15:13;;;;;;;52.53;14.93;;;;;;;3.32;82.74;96437.75;5069326;28;20048;-67
2020/12/16 04:17:39;;;;;;;69.35;15.77;;;;;;;3.32;82.97;96441.25;5070656;28;20048;-66
2020/12/16 04:20:06;;;;;;;56.47;15.55;;;;;;;3.35;82.77;96443.41;5069528;28;20079;-66
2020/12/16 04:22:32;;;;;;;68.55;15.48;;;;;;;3.37;82.35;96443.94;5070189;28;20419;-66
2020/12/16 04:24:58;;;;;;;61.35;14.80;;;;;;;3.38;82.25;96442.06;5069988;28;20096;-66
2020/12/16 04:27:24;;;;;;;86.38;16.35;;;;;;;3.34;82.25;96436.44;5070901;28;20504;-66
2020/12/16 04:29:50;;;;;;;67.20;15.60;;;;;;;3.33;82.38;96450.13;5070510;28;20068;-66
2020/12/16 04:32:16;;;;;;;77.20;16.00;;;;;;;3.34;82.49;96447.19;5068970;28;20075;-67
2020/12/16 04:34:42;;;;;;;72.57;15.75;;;;;;;3.30;82.22;96451.50;5070580;28;20056;-66
2020/12/16 04:37:08;;;;;;;83.80;16.95;;;;;;;3.31;82.57;96466.56;5068844;28;20055;-67
2020/12/16 04:39:34;;;;;;;56.30;15.20;;;;;;;3.34;82.62;96463.34;5070743;28;20102;-66
2020/12/16 04:42:01;;;;;;;71.25;16.27;;;;;;;3.36;82.68;96466.56;5070042;28;20044;-66
2020/12/16 04:44:28;;;;;;;60.33;16.17;;;;;;;3.40;82.44;96462.25;5070521;28;20040;-66
2020/12/16 04:46:54;;;;;;;77.15;15.93;;;;;;;3.44;82.48;96467.09;5070310;28;20041;-66
2020/12/16 04:49:21;;;;;;;67.78;16.23;;;;;;;3.45;82.17;96464.16;5070039;28;20519;-66
2020/12/16 04:51:48;;;;;;;67.07;16.35;;;;;;;3.46;81.77;96464.94;5070190;28;20052;-66
2020/12/16 04:54:14;;;;;;;53.65;16.83;;;;;;;3.42;81.86;96470.06;5069983;28;20462;-66
2020/12/16 04:56:41;;;;;;;65.72;17.25;;;;;;;3.45;82.20;96474.09;5071960;28;20153;-66
2020/12/16 04:59:08;;;;;;;59.72;17.17;;;;;;;3.44;81.83;96467.09;5069765;28;20049;-67
2020/12/16 05:01:39;;;;;;;68.95;18.02;;;;;;;3.47;82.28;96475.44;5070454;28;20044;-67
2020/12/16 05:04:05;;;;;;;57.95;16.55;;;;;;;3.47;82.04;96480.81;5069802;28;20048;-66
2020/12/16 05:06:36;;;;;;;59.42;16.45;;;;;;;3.48;82.02;96487.81;5070143;28;20052;-66
2020/12/16 05:09:06;;;;;;;65.05;15.88;;;;;;;3.47;82.28;96488.09;5069582;28;20041;-67
2020/12/16 05:11:37;;;;;;;72.40;16.98;;;;;;;3.47;81.94;96478.13;5070270;28;20048;-67
2020/12/16 05:14:12;;;;;;;71.80;16.67;;;;;;;3.48;81.68;96470.88;5069796;28;20072;-67
2020/12/16 05:17:08;;;;;;;68.65;17.17;;;;;;;3.46;82.02;96475.72;5069945;28;20076;-66
2020/12/16 05:19:37;;;;;;;59.38;17.45;;;;;;;3.43;81.96;96474.34;5069918;28;20047;-66
2020/12/16 05:22:24;;;;;;;80.90;18.08;;;;;;;3.45;82.42;96468.72;5069249;28;20542;-67
2020/12/16 05:24:52;;;;;;;73.40;18.33;;;;;;;3.46;81.91;96471.16;5070167;28;20049;-66
2020/12/16 05:27:21;;;;;;;68.55;17.80;;;;;;;3.42;82.19;96470.06;5070421;28;20049;-67
2020/12/16 05:29:52;;;;;;;74.38;17.83;;;;;;;3.38;82.19;96469.78;5069984;28;20055;-66
2020/12/16 05:32:19;;;;;;;65.47;16.88;;;;;;;3.42;82.12;96469.25;5069379;28;20060;-66
2020/12/16 05:34:46;;;;;;;83.18;17.95;;;;;;;3.44;82.29;96470.59;5069849;28;20761;-67
2020/12/16 05:37:28;;;;;;;67.05;17.40;;;;;;;3.43;82.45;96470.88;5068754;28;20052;-66
2020/12/16 05:40:06;;;;;;;74.80;17.60;;;;;;;3.43;82.52;96470.88;5069793;28;20044;-66
2020/12/16 05:42:32;;;;;;;75.70;19.35;;;;;;;3.49;82.51;96477.84;5069811;28;20053;-67
2020/12/16 05:45:10;;;;;;;79.07;17.40;;;;;;;3.50;82.38;96479.47;5069757;28;20044;-66
2020/12/16 05:47:39;;;;;;;77.30;17.42;;;;;;;3.50;82.05;96482.16;5069855;28;20555;-66
2020/12/16 05:50:15;;;;;;;60.05;17.67;;;;;;;3.50;82.33;96476.78;5069065;28;20060;-67
2020/12/16 05:52:41;;;;;;;115.80;20.33;;;;;;;3.50;82.24;96477.59;5066728;28;20435;-67
2020/12/16 05:55:07;;;;;;;60.47;18.00;;;;;;;3.53;82.00;96489.72;5068721;28;20049;-67
2020/12/16 05:57:33;;;;;;;79.00;20.08;;;;;;;3.55;82.08;96488.38;5069791;28;20059;-67
2020/12/16 06:00:10;;;;;;;92.15;20.67;;;;;;;3.58;81.65;96487.00;5069506;28;20068;-66
2020/12/16 06:02:38;;;;;;;81.22;19.00;;;;;;;3.58;81.72;96484.31;5069410;28;20067;-67
2020/12/16 06:05:06;;;;;;;78.75;18.27;;;;;;;3.58;81.99;96498.59;5068833;28;20049;-67
2020/12/16 06:07:33;;;;;;;54.38;17.33;;;;;;;3.59;81.74;96492.13;5069746;28;20110;-67
2020/12/16 06:09:59;;;;;;;82.30;17.52;;;;;;;3.62;81.66;96501.56;5069489;28;20044;-67
2020/12/16 06:12:28;;;;;;;61.47;19.35;;;;;;;3.61;81.41;96502.66;5068801;28;20040;-67
2020/12/16 06:15:07;;;;;;;77.28;18.33;;;;;;;3.62;81.32;96493.47;5069370;28;20055;-67
2020/12/16 06:17:40;;;;;;;71.40;18.25;;;;;;;3.60;81.29;96499.16;5069380;28;20047;-66
2020/12/16 06:20:09;;;;;;;72.57;18.27;;;;;;;3.62;81.33;96501.56;5068907;28;20049;-67
2020/12/16 06:22:37;;;;;;;56.20;17.27;;;;;;;3.63;81.36;96497.78;5062348;28;20127;-66
2020/12/16 06:25:06;;;;;;;110.15;19.80;;;;;;;3.62;81.49;96496.97;5047022;28;20051;-67
2020/12/16 06:27:37;;;;;;;73.22;17.52;;;;;;;3.59;81.53;96491.31;5049191;28;20052;-67
2020/12/16 06:30:06;;;;;;;78.85;17.63;;;;;;;3.57;81.66;96493.47;5048812;28;20053;-67
2020/12/16 06:32:42;;;;;;;70.68;19.17;;;;;;;3.53;81.70;96487.00;5048749;28;20052;-66
2020/12/16 06:35:17;;;;;;;88.50;20.33;;;;;;;3.54;81.75;96496.69;5048661;28;20496;-67
2020/12/16 06:37:43;;;;;;;95.95;21.08;;;;;;;3.54;81.41;96502.09;5049292;28;20053;-66
2020/12/16 06:40:09;;;;;;;91.88;19.73;;;;;;;3.53;81.51;96497.78;5048788;28;20049;-67
2020/12/16 06:42:35;;;;;;;85.05;20.75;;;;;;;3.54;81.84;96489.44;5049144;28;20415;-66
2020/12/16 06:45:12;;;;;;;89.47;18.48;;;;;;;3.51;81.77;96489.19;5048104;28;20052;-70
2020/12/16 06:47:39;;;;;;;78.88;18.42;;;;;;;3.50;81.55;96503.69;5049834;28;20390;-66
2020/12/16 06:50:23;;;;;;;73.20;17.88;;;;;;;3.49;81.73;96494.00;5052182;28;20052;-67
2020/12/16 06:52:49;;;;;;;84.70;20.27;;;;;;;3.46;81.56;96497.25;5053521;28;20049;-66
2020/12/16 06:55:16;;;;;;;69.93;17.33;;;;;;;3.44;81.78;96504.78;5052176;28;20045;-67
2020/12/16 06:57:49;;;;;;;92.88;17.83;;;;;;;3.49;81.70;96507.47;5052504;28;20048;-66
2020/12/16 07:00:21;;;;;;;64.40;16.92;;;;;;;3.49;81.44;96507.47;5051800;28;20044;-67
2020/12/16 07:02:48;;;;;;;81.93;18.13;;;;;;;3.52;81.48;96506.94;5052588;28;20557;-66
2020/12/16 07:05:44;;;;;;;70.05;16.10;;;;;;;3.57;81.36;96506.94;5051578;28;20055;-67
2020/12/16 07:08:10;;;;;;;79.68;16.23;;;;;;;3.57;81.33;96518.53;5009407;28;20042;-67
2020/12/16 07:10:45;;;;;;;64.20;15.95;;;;;;;3.58;81.38;96517.44;5042310;28;20484;-66
2020/12/16 07:13:20;;;;;;;72.25;15.75;;;;;;;3.57;81.12;96520.41;5052063;28;20041;-67
2020/12/16 07:15:48;;;;;;;75.85;16.27;;;;;;;3.56;80.79;96527.69;5052140;28;20045;-72
2020/12/16 07:18:23;;;;;;;77.63;16.63;;;;;;;3.56;80.82;96524.19;5050969;28;20041;-69
2020/12/16 07:20:49;;;;;;;89.78;16.90;;;;;;;3.56;80.98;96534.97;5052288;28;20107;-70
2020/12/16 07:23:15;;;;;;;67.75;16.42;;;;;;;3.58;80.91;96536.28;5052320;28;20044;-71
2020/12/16 07:25:44;;;;;;;73.47;17.13;;;;;;;3.61;80.69;96543.03;5052290;28;20056;-70
2020/12/16 07:28:11;;;;;;;78.93;17.15;;;;;;;3.64;80.83;96547.88;5051755;28;20076;-70
2020/12/16 07:30:50;;;;;;;67.90;18.17;;;;;;;3.68;80.81;96543.56;5052121;28;20630;-70
2020/12/16 07:33:18;;;;;;;83.47;18.50;;;;;;;3.69;80.63;96541.69;5051482;28;20049;-70
2020/12/16 07:35:47;;;;;;;83.22;18.33;;;;;;;3.70;80.50;96538.72;5051679;28;20500;-70
2020/12/16 07:38:14;;;;;;;65.13;17.30;;;;;;;3.71;80.66;96548.44;5051558;28;20044;-70
2020/12/16 07:40:41;;;;;;;71.75;17.42;;;;;;;3.71;80.49;96553.81;5051910;28;20053;-70
2020/12/16 07:43:08;;;;;;;78.60;17.73;;;;;;;3.72;80.67;96541.97;5051528;28;20056;-71
2020/12/16 07:45:34;;;;;;;70.68;18.08;;;;;;;3.76;80.72;96551.13;5051875;28;20155;-70
2020/12/16 07:48:02;;;;;;;85.00;19.13;;;;;;;3.80;80.29;96541.41;5051909;28;20053;-70
2020/12/16 07:50:28;;;;;;;72.03;17.67;;;;;;;3.86;80.49;96550.28;5051461;28;20062;-71
2020/12/16 07:52:54;;;;;;;74.15;17.80;;;;;;;3.87;80.18;96550.03;5051618;28;20606;-71
2020/12/16 07:55:22;;;;;;;78.65;17.55;;;;;;;3.87;80.21;96552.72;5051267;28;21048;-71
2020/12/16 07:57:48;;;;;;;76.05;15.80;;;;;;;3.85;79.53;96559.44;5051689;28;20412;-70
2020/12/16 08:00:21;;;;;;;88.40;17.80;;;;;;;3.83;79.67;96559.72;5050412;28;20128;-70
2020/12/16 08:02:50;;;;;;;108.07;21.48;;;;;;;3.79;79.58;96561.34;5050199;28;20049;-69
2020/12/16 08:05:16;;;;;;;79.53;20.05;;;;;;;3.78;79.89;96565.13;5050647;28;20045;-69
2020/12/16 08:07:42;;;;;;;77.53;18.90;;;;;;;3.78;79.66;96575.88;5051449;28;20505;-69
2020/12/16 08:10:09;;;;;;;90.85;20.25;;;;;;;3.79;79.70;96572.13;5049874;28;20045;-71
2020/12/16 08:12:40;;;;;;;59.85;17.45;;;;;;;3.82;78.98;96579.66;5051229;28;20049;-70
2020/12/16 08:15:08;;;;;;;76.47;19.35;;;;;;;3.82;79.09;96581.56;5050815;28;20650;-70
2020/12/16 08:17:38;;;;;;;74.53;18.33;;;;;;;3.85;79.31;96579.13;5050436;28;20049;-70
2020/12/16 08:20:14;;;;;;;68.32;18.48;;;;;;;3.90;79.81;96579.13;5050419;28;20700;-69
2020/12/16 08:22:42;;;;;;;76.75;18.88;;;;;;;3.92;79.55;96582.38;5051554;28;20492;-69
2020/12/16 08:25:11;;;;;;;68.03;18.50;;;;;;;3.93;79.67;96588.56;5050748;28;20496;-70
2020/12/16 08:27:39;;;;;;;74.22;18.73;;;;;;;3.93;79.89;96599.34;5051340;28;20045;-70
2020/12/16 08:30:06;;;;;;;78.32;19.88;;;;;;;3.96;79.98;96597.97;5050385;28;20549;-70
2020/12/16 08:32:50;;;;;;;103.25;20.70;;;;;;;3.96;79.81;96603.38;5050602;28;20052;-70
2020/12/16 08:35:19;;;;;;;69.28;18.40;;;;;;;3.99;79.93;96605.53;5050477;28;20411;-70
2020/12/16 08:37:47;;;;;;;91.90;19.38;;;;;;;4.02;79.72;96608.50;5050821;28;20072;-70
2020/12/16 08:40:15;;;;;;;63.15;18.95;;;;;;;4.03;79.51;96610.13;5050143;28;20041;-70
2020/12/16 08:42:42;;;;;;;86.25;20.90;;;;;;;4.07;79.81;96607.66;5050845;28;20508;-70
2020/12/16 08:45:09;;;;;;;81.10;20.42;;;;;;;4.11;79.98;96608.75;5050372;28;20045;-70
2020/12/16 08:47:36;;;;;;;76.03;19.52;;;;;;;4.21;79.81;96606.06;5050700;28;20049;-70
2020/12/16 08:50:06;;;;;;;95.57;20.60;;;;;;;4.26;79.66;96616.03;5049900;28;20052;-70
2020/12/16 08:52:39;;;;;;;73.50;19.33;;;;;;;4.33;79.57;96620.09;5060003;28;20056;-69
2020/12/16 08:55:17;;;;;;;91.65;19.83;;;;;;;4.36;79.57;96618.72;5049012;28;20543;-70
2020/12/16 08:57:55;;;;;;;116.57;21.40;;;;;;;4.37;79.51;96615.72;5053570;28;20057;-70
2020/12/16 09:00:29;;;;;;;74.70;18.88;;;;;;;4.44;79.59;96627.06;5089764;28;20055;-69
2020/12/16 09:03:02;;;;;;;84.72;18.60;;;;;;;4.49;78.58;96622.72;5090216;28;20055;-70
2020/12/16 09:05:28;;;;;;;;;;;;;;;4.43;77.83;96625.44;5090053;28;20052;-69
2020/12/16 09:08:04;;;;;;;71.75;19.02;;;;;;;4.36;78.35;96624.91;5090310;28;19927;-70
2020/12/16 09:10:30;;;;;;;73.82;19.33;;;;;;;4.38;78.27;96628.13;5089702;28;20089;-70
2020/12/16 09:12:57;;;;;;;68.90;17.67;;;;;;;4.35;77.84;96639.47;5089628;28;20048;-70
2020/12/16 09:15:23;;;;;;;66.10;17.90;;;;;;;4.32;78.03;96648.09;5089572;28;20048;-70
2020/12/16 09:17:51;;;;;;;65.53;18.40;;;;;;;4.31;78.03;96641.09;5090196;28;20131;-69
2020/12/16 09:20:18;;;;;;;74.53;18.92;;;;;;;4.33;78.49;96647.03;5089444;28;20040;-70
2020/12/16 09:22:44;;;;;;;83.63;20.38;;;;;;;4.39;78.60;96651.34;5080730;28;20542;-70
2020/12/16 09:25:16;;;;;;;85.18;18.90;;;;;;;4.44;78.96;96642.44;5069361;28;20052;-70
2020/12/16 09:27:49;;;;;;;74.93;19.67;;;;;;;4.47;78.78;96643.78;5069980;28;20041;-69
2020/12/16 09:30:28;;;;;;;67.25;20.08;;;;;;;4.45;78.44;96644.84;5069104;28;20044;-71
2020/12/16 09:32:54;;;;;;;74.30;19.52;;;;;;;4.45;78.48;96644.84;5069707;28;20044;-71
2020/12/16 09:35:22;;;;;;;86.38;21.13;;;;;;;4.47;78.30;96646.47;5067585;28;20412;-68
2020/12/16 09:37:48;;;;;;;83.90;19.92;;;;;;;4.50;78.63;96651.34;5069427;28;20041;-70
2020/12/16 09:40:15;;;;;;;74.82;19.70;;;;;;;4.52;78.41;96643.78;5068721;28;20495;-70
2020/12/16 09:42:53;;;;;;;94.60;21.15;;;;;;;4.51;78.17;96651.06;5068976;28;20052;-70
2020/12/16 09:45:20;;;;;;;79.07;20.45;;;;;;;4.52;77.92;96644.56;5068918;28;20041;-70
2020/12/16 09:47:49;;;;;;;78.00;20.75;;;;;;;4.54;78.03;96641.59;5069653;28;20044;-70
2020/12/16 09:50:15;;;;;;;74.03;19.98;;;;;;;4.56;78.09;96644.84;5068780;28;20541;-70
2020/12/16 09:52:42;;;;;;;84.53;19.85;;;;;;;4.61;78.44;96639.44;5061265;28;20041;-69
2020/12/16 09:55:16;;;;;;;72.90;20.17;;;;;;;4.63;77.96;96645.38;5068624;28;20045;-70
2020/12/16 09:57:43;;;;;;;71.60;19.08;;;;;;;4.64;77.89;96646.97;5069514;28;20201;-69
2020/12/16 10:00:19;;;;;;;87.38;19.05;;;;;;;4.64;78.01;96644.28;5054150;28;20520;-71
2020/12/16 10:02:47;;;;;;;85.72;19.15;;;;;;;4.62;77.23;96646.44;5068474;28;20051;-69
2020/12/16 10:05:14;;;;;;;66.55;19.38;;;;;;;4.61;77.50;96652.94;5068457;28;20596;-70
2020/12/16 10:07:39;;;;;;;69.90;18.10;;;;;;;4.64;77.52;96644.28;5069493;28;20052;-70
2020/12/16 10:10:06;;;;;;;80.95;20.80;;;;;;;4.68;77.63;96642.66;5068458;28;20106;-71
2020/12/16 10:12:32;;;;;;;60.75;18.77;;;;;;;4.74;77.58;96644.25;5069380;28;20519;-71
2020/12/16 10:14:58;;;;;;;76.65;19.27;;;;;;;4.72;77.19;96638.34;5069180;28;20056;-70
2020/12/16 10:17:25;;;;;;;87.93;19.33;;;;;;;4.77;77.38;96641.03;5068320;28;20044;-69
2020/12/16 10:19:52;;;;;;;86.18;20.98;;;;;;;4.80;77.85;96640.47;5067316;28;20090;-69
2020/12/16 10:22:18;;;;;;;76.88;20.83;;;;;;;4.87;78.07;96646.41;5066684;28;20045;-70
2020/12/16 10:24:51;;;;;;;74.97;19.90;;;;;;;4.92;77.88;96643.69;5072967;28;20052;-71
2020/12/16 10:27:24;;;;;;;67.95;20.02;;;;;;;4.92;78.13;96642.88;5055417;28;20052;-71
2020/12/16 10:30:04;;;;;;;73.72;19.67;;;;;;;5.00;77.88;96633.41;5067945;28;20041;-68
2020/12/16 10:32:43;;;;;;;91.10;21.45;;;;;;;5.04;77.75;96639.88;5058754;28;20068;-71
2020/12/16 10:35:25;;;;;;;77.35;19.50;;;;;;;5.05;77.49;96625.28;5051571;28;20098;-68
2020/12/16 10:37:52;;;;;;;78.38;19.85;;;;;;;5.09;77.20;96629.06;5067865;28;20048;-68
2020/12/16 10:40:18;;;;;;;74.65;18.67;;;;;;;5.13;77.37;96625.53;5072057;28;20049;-68
2020/12/16 10:42:44;;;;;;;73.15;19.20;;;;;;;5.12;77.09;96632.03;5072588;28;20056;-71
2020/12/16 10:45:10;;;;;;;75.75;20.08;;;;;;;5.15;77.32;96627.94;5072403;28;20041;-67
2020/12/16 10:47:36;;;;;;;79.72;20.33;;;;;;;5.16;77.29;96632.25;5072300;28;20056;-68
2020/12/16 10:50:03;;;;;;;88.97;21.58;;;;;;;5.17;76.91;96632.00;5072181;28;20041;-68
2020/12/16 10:52:30;;;;;;;64.30;18.80;;;;;;;5.20;77.27;96633.31;5072350;28;20506;-68
2020/12/16 10:54:56;;;;;;;68.60;19.50;;;;;;;5.28;77.32;96632.75;5072661;28;20506;-68
2020/12/16 10:57:23;;;;;;;88.10;20.30;;;;;;;5.34;77.10;96622.75;5072117;28;20044;-69
2020/12/16 10:59:49;;;;;;;68.70;18.75;;;;;;;5.38;76.95;96624.63;5072458;28;20040;-68
2020/12/16 11:02:16;;;;;;;62.47;18.88;;;;;;;5.40;76.82;96622.44;5071891;28;20044;-68
2020/12/16 11:04:43;;;;;;;63.97;17.77;;;;;;;5.44;76.51;96628.09;5072591;28;20106;-69
2020/12/16 11:07:09;;;;;;;76.75;19.00;;;;;;;5.47;76.15;96633.72;5071900;28;20052;-68
2020/12/16 11:09:36;;;;;;;57.05;17.52;;;;;;;5.52;75.87;96634.78;5072347;28;20048;-68
2020/12/16 11:12:02;;;;;;;86.78;18.10;;;;;;;5.52;75.97;96629.38;5071262;28;20040;-70
2020/12/16 11:14:28;;;;;;;91.85;18.88;;;;;;;5.55;76.09;96635.06;5071469;28;20048;-67
2020/12/16 11:16:54;;;;;;;68.40;16.52;;;;;;;5.57;76.26;96632.06;5072249;28;20079;-67
2020/12/16 11:19:22;;;;;;;55.78;15.70;;;;;;;5.57;75.31;96629.34;5071631;28;20060;-66
2020/12/16 11:21:50;;;;;;;75.43;15.82;;;;;;;5.57;75.40;96632.06;5071299;28;20040;-66
2020/12/16 11:24:21;;;;;;;60.70;16.58;;;;;;;5.59;75.22;96629.91;5051550;28;20128;-66
2020/12/16 11:26:48;;;;;;;59.95;16.10;;;;;;;5.60;75.48;96640.44;5051952;28;20049;-67
2020/12/16 11:29:16;;;;;;;57.63;16.13;;;;;;;5.60;75.28;96642.31;5051608;28;20045;-67
2020/12/16 11:31:44;;;;;;;53.90;15.75;;;;;;;5.60;75.32;96637.72;5051858;28;20555;-68
2020/12/16 11:34:11;;;;;;;74.35;17.33;;;;;;;5.59;75.20;96641.53;5050457;28;20064;-67
2020/12/16 11:36:40;;;;;;;57.72;16.85;;;;;;;5.57;74.52;96637.47;5064007;28;20060;-67